Time;durP1;ratioP1;P1;durP2;ratioP2;P2;SDS_P1;SDS_P2;PMS_P1;PMS_P2;Temp;Humidity;BMP_temperature;BMP_pressure;BME280_temperature;BME280_humidity;BME280_pressure;Samples;Min_cycle;Max_cycle;Signal;HPM_P1;HPM_P2
2023/09/23 00:04:18;;;;;;;1.30;1.10;;;24.60;62.80;;;;;;229293;1249;23337;-59
2023/09/23 00:09:21;;;;;;;2.00;1.00;;;24.70;62.60;;;;;;229280;1251;22272;-59
2023/09/23 00:14:24;;;;;;;2.40;1.00;;;24.60;63.10;;;;;;228984;1257;326232;-59
2023/09/23 00:19:26;;;;;;;1.20;1.10;;;24.50;63.20;;;;;;229234;1252;22283;-60
2023/09/23 00:24:30;;;;;;;1.90;1.10;;;24.50;63.30;;;;;;229224;1256;22481;-59
2023/09/23 00:29:34;;;;;;;1.80;1.00;;;24.50;63.40;;;;;;229238;1248;22983;-59
2023/09/23 00:34:37;;;;;;;1.70;1.10;;;24.50;63.60;;;;;;229243;1257;22305;-59
2023/09/23 00:39:40;;;;;;;2.00;1.10;;;24.40;63.40;;;;;;229297;1251;22286;-59
2023/09/23 00:44:44;;;;;;;1.80;1.10;;;24.50;63.60;;;;;;229229;1248;23308;-59
2023/09/23 00:49:47;;;;;;;2.00;1.00;;;24.40;63.50;;;;;;229277;1248;22458;-59
2023/09/23 00:54:52;;;;;;;4.00;0.90;;;24.40;63.50;;;;;;229279;1254;23377;-60
2023/09/23 00:59:55;;;;;;;2.80;1.30;;;24.40;63.50;;;;;;229270;1255;23238;-59
2023/09/23 01:04:58;;;;;;;1.10;1.00;;;24.40;63.50;;;;;;229263;1253;22322;-59
2023/09/23 01:10:00;;;;;;;1.50;1.00;;;24.40;63.50;;;;;;229316;1248;23829;-60
2023/09/23 01:15:17;;;;;;;1.20;0.90;;;24.40;63.50;;;;;;229193;1249;22732;-59
2023/09/23 01:20:21;;;;;;;1.10;0.90;;;24.40;63.50;;;;;;229226;1256;22272;-59
2023/09/23 01:25:25;;;;;;;2.00;1.10;;;24.40;63.50;;;;;;229302;1257;22665;-59
2023/09/23 01:30:29;;;;;;;1.40;1.30;;;24.40;63.20;;;;;;229164;1248;22307;-59
2023/09/23 01:35:31;;;;;;;1.10;0.90;;;24.30;63.50;;;;;;229238;1256;22282;-59
2023/09/23 01:40:36;;;;;;;1.40;1.20;;;24.30;63.50;;;;;;229204;1249;22257;-59
2023/09/23 01:45:39;;;;;;;1.00;0.90;;;24.40;63.50;;;;;;229190;1253;23484;-59
2023/09/23 01:50:44;;;;;;;0.90;0.80;;;24.40;63.50;;;;;;229173;1256;22271;-60
2023/09/23 01:55:46;;;;;;;1.50;1.10;;;24.40;63.50;;;;;;229268;1248;23881;-60
2023/09/23 02:00:55;;;;;;;1.20;1.00;;;24.40;63.50;;;;;;229304;1256;22227;-59
2023/09/23 02:05:58;;;;;;;2.80;1.00;;;24.40;63.40;;;;;;229288;1256;22270;-60
2023/09/23 02:11:00;;;;;;;1.40;1.30;;;24.40;63.40;;;;;;229296;1252;22258;-59
2023/09/23 02:16:04;;;;;;;0.80;0.70;;;24.40;63.40;;;;;;229299;1249;23012;-58
2023/09/23 02:21:08;;;;;;;0.90;0.90;;;24.40;63.40;;;;;;227363;1256;24750;-58
2023/09/23 02:26:12;;;;;;;1.10;0.90;;;24.30;63.30;;;;;;229220;1257;22276;-59
2023/09/23 02:31:15;;;;;;;0.70;0.70;;;24.30;63.50;;;;;;229228;1254;22350;-57
2023/09/23 02:36:18;;;;;;;0.80;0.80;;;24.30;63.50;;;;;;229236;1249;22267;-58
2023/09/23 02:41:22;;;;;;;1.20;0.90;;;24.30;63.40;;;;;;229247;1256;22645;-59
2023/09/23 02:46:24;;;;;;;1.40;0.90;;;24.30;63.40;;;;;;229231;1258;22258;-58
2023/09/23 02:51:30;;;;;;;1.90;1.00;;;24.30;63.50;;;;;;229181;1256;22271;-59
2023/09/23 02:56:36;;;;;;;1.10;1.00;;;24.30;63.50;;;;;;229160;1254;23076;-59
2023/09/23 03:01:45;;;;;;;1.00;0.70;;;24.30;63.40;;;;;;229240;1249;22284;-58
2023/09/23 03:06:50;;;;;;;1.00;0.70;;;24.30;63.50;;;;;;229239;1252;22691;-59
2023/09/23 03:11:55;;;;;;;2.50;0.90;;;24.30;63.50;;;;;;229212;1252;22307;-59
2023/09/23 03:16:59;;;;;;;2.30;1.00;;;24.30;63.30;;;;;;229171;1253;22298;-58
2023/09/23 03:22:02;;;;;;;0.70;0.70;;;24.30;63.50;;;;;;229244;1257;22282;-59
2023/09/23 03:27:05;;;;;;;0.70;0.70;;;24.30;63.90;;;;;;227636;1258;22939;-58
2023/09/23 03:32:08;;;;;;;1.80;1.10;;;24.30;63.60;;;;;;221247;1264;22529;-57
2023/09/23 03:37:12;;;;;;;1.10;0.90;;;24.30;64.20;;;;;;229192;1264;22356;-59
2023/09/23 03:42:16;;;;;;;1.30;0.80;;;24.20;63.70;;;;;;229049;1264;22238;-60
2023/09/23 03:47:19;;;;;;;0.70;0.70;;;24.30;63.80;;;;;;229064;1264;22303;-59
2023/09/23 03:52:23;;;;;;;0.90;0.80;;;24.30;63.30;;;;;;229157;1264;22320;-59
2023/09/23 03:57:26;;;;;;;0.70;0.70;;;24.30;63.20;;;;;;225002;1253;22561;-57
2023/09/23 04:02:30;;;;;;;0.60;0.60;;;24.30;63.50;;;;;;229207;1264;22310;-57
2023/09/23 04:07:33;;;;;;;3.40;0.90;;;24.20;64.20;;;;;;222689;1256;24441;-57
2023/09/23 04:12:37;;;;;;;1.70;0.80;;;24.20;63.50;;;;;;221634;1249;22530;-55
2023/09/23 04:17:42;;;;;;;0.90;0.90;;;24.10;63.80;;;;;;220514;1254;22560;-56
2023/09/23 04:22:48;;;;;;;1.50;0.70;;;24.00;64.10;;;;;;221691;1264;24297;-56
2023/09/23 04:27:52;;;;;;;0.80;0.80;;;24.00;64.20;;;;;;220408;1261;22524;-56
2023/09/23 04:32:55;;;;;;;0.70;0.60;;;24.00;64.20;;;;;;225586;1264;22615;-57
2023/09/23 04:37:58;;;;;;;0.90;0.70;;;24.00;64.00;;;;;;229166;1264;22399;-57
2023/09/23 04:43:04;;;;;;;0.70;0.70;;;24.10;63.80;;;;;;229146;1256;22255;-57
2023/09/23 04:48:07;;;;;;;0.70;0.70;;;24.10;63.50;;;;;;229220;1264;22316;-57
2023/09/23 04:53:09;;;;;;;1.00;0.80;;;24.20;63.60;;;;;;229232;1264;22308;-57
2023/09/23 04:58:13;;;;;;;0.80;0.60;;;24.10;63.40;;;;;;224323;1252;25342;-57
2023/09/23 05:03:16;;;;;;;0.70;0.70;;;24.10;63.40;;;;;;229270;1264;22332;-58
2023/09/23 05:08:19;;;;;;;0.70;0.70;;;24.10;63.60;;;;;;224730;1264;22582;-57
2023/09/23 05:13:24;;;;;;;0.80;0.60;;;24.10;63.50;;;;;;225792;1261;22534;-58
2023/09/23 05:18:28;;;;;;;3.30;1.10;;;24.10;63.50;;;;;;229235;1258;22298;-57
2023/09/23 05:23:31;;;;;;;0.70;0.70;;;24.10;63.50;;;;;;229193;1264;24094;-58
2023/09/23 05:28:33;;;;;;;1.50;0.90;;;24.20;63.20;;;;;;229145;1264;23162;-57
2023/09/23 05:33:37;;;;;;;1.70;1.00;;;24.10;63.20;;;;;;229202;1253;22259;-57
2023/09/23 05:38:40;;;;;;;2.80;0.60;;;24.20;63.20;;;;;;228701;1264;22639;-56
2023/09/23 05:43:43;;;;;;;2.30;0.80;;;24.20;63.20;;;;;;220570;1257;23935;-59
2023/09/23 05:48:48;;;;;;;0.90;0.60;;;24.10;63.40;;;;;;229287;1251;22328;-58
2023/09/23 05:53:50;;;;;;;1.10;0.90;;;24.10;63.70;;;;;;229161;1264;22276;-58
2023/09/23 05:58:53;;;;;;;1.30;0.90;;;24.10;63.40;;;;;;229249;1252;22290;-58
2023/09/23 06:03:56;;;;;;;1.40;0.70;;;24.20;63.10;;;;;;229135;1264;22246;-58
2023/09/23 06:08:59;;;;;;;3.10;0.80;;;24.30;63.10;;;;;;229216;1250;23036;-58
2023/09/23 06:14:01;;;;;;;2.00;0.60;;;24.30;63.10;;;;;;229131;1255;22239;-58
2023/09/23 06:19:04;;;;;;;1.10;1.00;;;24.20;63.10;;;;;;229191;1264;23066;-58
2023/09/23 06:24:10;;;;;;;0.90;0.90;;;24.20;63.30;;;;;;229250;1255;22668;-59
2023/09/23 06:29:14;;;;;;;0.90;0.90;;;24.30;63.20;;;;;;229143;1265;22264;-59
2023/09/23 06:34:17;;;;;;;3.00;0.90;;;24.20;63.10;;;;;;229212;1264;23117;-63
2023/09/23 06:39:23;;;;;;;0.60;0.60;;;24.30;63.20;;;;;;229232;1249;23504;-58
2023/09/23 06:44:26;;;;;;;0.80;0.80;;;24.30;63.20;;;;;;229150;1264;22260;-59
2023/09/23 06:49:29;;;;;;;0.80;0.60;;;24.30;63.10;;;;;;229236;1264;22435;-59
2023/09/23 06:54:32;;;;;;;2.50;0.80;;;24.30;63.30;;;;;;229176;1253;22278;-59
2023/09/23 06:59:34;;;;;;;1.00;1.00;;;24.40;63.10;;;;;;229204;1264;22274;-59
2023/09/23 07:04:37;;;;;;;3.80;0.70;;;24.50;63.50;;;;;;229199;1264;22310;-59
2023/09/23 07:09:40;;;;;;;0.80;0.80;;;24.60;62.60;;;;;;229184;1264;22268;-59
2023/09/23 07:14:42;;;;;;;1.30;0.80;;;24.70;62.50;;;;;;229220;1264;22255;-59
2023/09/23 07:19:48;;;;;;;3.40;1.00;;;25.00;62.40;;;;;;229221;1253;22522;-60
2023/09/23 07:24:51;;;;;;;7.50;0.90;;;24.80;62.40;;;;;;229189;1264;22938;-60
2023/09/23 07:29:53;;;;;;;7.00;0.80;;;24.80;62.50;;;;;;229165;1264;22390;-60
2023/09/23 07:34:56;;;;;;;5.40;0.90;;;24.70;62.80;;;;;;229233;1264;22279;-59
2023/09/23 07:39:59;;;;;;;2.50;1.00;;;24.60;63.00;;;;;;229247;1261;23522;-60
2023/09/23 07:45:01;;;;;;;3.90;1.30;;;24.60;63.10;;;;;;229222;1265;22284;-60
2023/09/23 07:50:04;;;;;;;3.40;0.80;;;24.50;63.60;;;;;;229186;1264;22276;-60
2023/09/23 07:55:07;;;;;;;4.10;0.80;;;24.60;63.40;;;;;;229201;1251;22336;-60
2023/09/23 08:00:11;;;;;;;6.70;0.80;;;24.60;63.40;;;;;;229200;1256;22286;-61
2023/09/23 08:05:13;;;;;;;1.00;0.70;;;24.50;63.50;;;;;;229233;1259;22280;-62
2023/09/23 08:10:17;;;;;;;1.20;0.80;;;24.50;63.60;;;;;;229255;1251;22315;-60
2023/09/23 08:15:20;;;;;;;1.80;0.90;;;24.50;63.70;;;;;;227392;1265;24253;-56
2023/09/23 08:20:23;;;;;;;5.00;1.10;;;24.70;63.00;;;;;;220797;1256;22656;-52
2023/09/23 08:25:26;;;;;;;6.40;1.50;;;24.70;63.10;;;;;;229193;1265;22367;-54
2023/09/23 08:30:29;;;;;;;2.40;1.10;;;24.60;63.20;;;;;;229187;1253;22390;-52
2023/09/23 08:35:32;;;;;;;4.10;1.40;;;24.50;60.50;;;;;;229167;1265;22239;-54
2023/09/23 08:40:38;;;;;;;3.10;1.00;;;24.30;59.00;;;;;;229229;1255;22265;-56
2023/09/23 08:45:43;;;;;;;3.90;1.10;;;24.20;58.10;;;;;;229230;1260;22320;-56
2023/09/23 08:50:51;;;;;;;9.50;2.00;;;24.10;56.30;;;;;;229166;1253;23004;-54
2023/09/23 08:55:54;;;;;;;5.20;1.60;;;24.10;59.30;;;;;;229215;1249;22275;-56
2023/09/23 09:00:57;;;;;;;4.80;1.30;;;24.30;59.70;;;;;;229199;1257;23169;-55
2023/09/23 09:06:00;;;;;;;11.20;1.50;;;24.50;60.30;;;;;;229251;1264;22327;-54
2023/09/23 09:11:03;;;;;;;3.00;1.20;;;24.40;60.10;;;;;;229136;1265;22447;-56
2023/09/23 09:16:06;;;;;;;3.20;1.30;;;24.30;59.50;;;;;;229209;1264;22339;-56
2023/09/23 09:21:09;;;;;;;1.50;1.30;;;24.50;59.10;;;;;;229274;1254;22803;-55
2023/09/23 09:26:12;;;;;;;3.20;1.30;;;24.50;58.50;;;;;;227907;1254;24234;-55
2023/09/23 09:31:17;;;;;;;9.00;1.60;;;24.40;57.50;;;;;;229172;1254;22293;-56
2023/09/23 09:36:23;;;;;;;1.50;1.10;;;24.20;56.70;;;;;;229248;1253;22285;-52
2023/09/23 09:41:33;;;;;;;2.50;1.30;;;23.90;55.60;;;;;;229233;1249;22323;-53
2023/09/23 09:46:40;;;;;;;10.90;1.30;;;23.80;55.90;;;;;;229162;1250;22255;-54
2023/09/23 09:51:49;;;;;;;5.20;1.30;;;23.80;55.60;;;;;;229161;1248;22264;-55
2023/09/23 09:56:55;;;;;;;7.20;1.70;;;23.80;55.90;;;;;;229227;1249;22338;-52
2023/09/23 10:01:58;;;;;;;4.30;0.90;;;24.10;56.00;;;;;;229088;1249;22985;-53
2023/09/23 10:07:06;;;;;;;3.00;1.60;;;24.50;55.50;;;;;;229186;1254;22295;-52
2023/09/23 10:12:09;;;;;;;3.30;1.30;;;24.50;55.40;;;;;;229188;1253;22368;-54
2023/09/23 10:17:12;;;;;;;6.60;1.10;;;24.50;55.80;;;;;;229268;1251;23065;-54
2023/09/23 10:22:21;;;;;;;3.50;1.30;;;24.40;56.20;;;;;;229214;1251;22335;-52
2023/09/23 10:27:25;;;;;;;6.20;1.40;;;24.30;56.50;;;;;;229137;1255;22831;-55
2023/09/23 10:32:28;;;;;;;3.90;1.00;;;24.30;56.50;;;;;;229066;1254;22376;-54
2023/09/23 10:37:32;;;;;;;2.30;1.20;;;24.30;56.20;;;;;;229140;1252;22240;-55
2023/09/23 10:42:35;;;;;;;2.30;1.10;;;24.40;55.80;;;;;;229142;1253;22252;-54
2023/09/23 10:47:38;;;;;;;5.60;1.30;;;24.50;56.20;;;;;;229152;1261;22824;-54
2023/09/23 10:52:42;;;;;;;1.10;1.00;;;24.30;55.50;;;;;;229289;1254;22352;-52
2023/09/23 10:57:47;;;;;;;2.90;1.00;;;24.30;55.90;;;;;;229243;1253;22273;-54
2023/09/23 11:02:52;;;;;;;4.00;0.80;;;24.30;56.20;;;;;;229222;1257;22261;-54
2023/09/23 11:07:56;;;;;;;3.10;0.90;;;24.30;55.70;;;;;;229301;1254;22370;-57
2023/09/23 11:12:59;;;;;;;5.70;1.20;;;24.30;55.60;;;;;;229294;1253;22240;-53
2023/09/23 11:18:02;;;;;;;4.10;1.30;;;24.50;56.30;;;;;;229257;1253;23452;-56
2023/09/23 11:23:06;;;;;;;1.00;0.90;;;24.30;54.70;;;;;;229254;1253;22283;-56
2023/09/23 11:28:34;;;;;;;4.20;0.90;;;24.20;54.50;;;;;;229261;1264;22277;-56
2023/09/23 11:33:37;;;;;;;1.60;0.90;;;24.10;54.20;;;;;;229245;1260;22253;-56
2023/09/23 11:38:40;;;;;;;2.40;0.90;;;24.10;54.40;;;;;;229235;1265;24056;-56
2023/09/23 11:43:44;;;;;;;3.90;0.70;;;24.10;54.10;;;;;;229278;1264;22383;-58
2023/09/23 11:48:49;;;;;;;1.10;0.70;;;24.00;54.50;;;;;;229243;1259;22320;-56
2023/09/23 11:53:52;;;;;;;0.70;0.70;;;23.90;54.10;;;;;;225048;1264;26998;-56
2023/09/23 11:58:55;;;;;;;3.10;1.00;;;23.90;54.30;;;;;;229176;1264;22282;-57
2023/09/23 12:04:11;;;;;;;4.00;1.00;;;23.90;54.00;;;;;;229238;1264;22260;-55
2023/09/23 12:09:13;;;;;;;1.90;0.80;;;23.80;54.10;;;;;;229176;1264;23026;-55
2023/09/23 12:14:19;;;;;;;1.10;0.80;;;23.70;54.00;;;;;;229047;1264;216111;-56
2023/09/23 12:19:21;;;;;;;1.20;1.10;;;23.80;54.10;;;;;;229244;1251;22256;-56
2023/09/23 12:24:24;;;;;;;0.90;0.90;;;23.80;54.00;;;;;;229180;1264;22529;-56
2023/09/23 12:29:27;;;;;;;2.00;1.10;;;23.70;54.00;;;;;;229215;1253;23036;-56
2023/09/23 12:34:30;;;;;;;0.90;0.90;;;23.60;54.10;;;;;;229209;1257;22303;-55
2023/09/23 12:39:33;;;;;;;1.70;1.00;;;23.70;54.10;;;;;;229176;1251;23065;-55
2023/09/23 12:44:36;;;;;;;1.90;0.80;;;23.60;54.10;;;;;;229243;1253;23058;-56
2023/09/23 12:49:40;;;;;;;0.90;0.90;;;23.70;54.30;;;;;;229289;1251;22290;-56
2023/09/23 12:54:42;;;;;;;1.70;1.00;;;23.60;54.00;;;;;;229176;1264;23094;-56
2023/09/23 12:59:45;;;;;;;13.20;1.10;;;23.60;53.90;;;;;;229253;1254;22265;-57
2023/09/23 13:04:50;;;;;;;4.50;1.20;;;23.80;54.80;;;;;;229209;1253;22277;-57
2023/09/23 13:09:53;;;;;;;1.60;1.20;;;24.10;55.80;;;;;;229223;1264;23374;-56
2023/09/23 13:14:56;;;;;;;2.60;1.50;;;24.50;56.50;;;;;;229206;1265;22287;-57
2023/09/23 13:20:00;;;;;;;3.90;1.10;;;24.50;57.80;;;;;;229247;1264;22298;-56
2023/09/23 13:25:05;;;;;;;3.50;1.20;;;24.50;57.90;;;;;;229103;1251;22239;-56
2023/09/23 13:30:10;;;;;;;4.30;1.20;;;24.70;58.20;;;;;;229090;1251;22262;-56
2023/09/23 13:35:13;;;;;;;1.20;1.00;;;25.00;57.00;;;;;;229171;1251;22343;-56
2023/09/23 13:40:17;;;;;;;14.20;1.20;;;25.10;56.70;;;;;;229092;1264;23204;-56
2023/09/23 13:45:20;;;;;;;1.40;1.00;;;25.10;57.00;;;;;;229056;1252;22273;-57
2023/09/23 13:50:25;;;;;;;1.60;1.20;;;25.10;57.10;;;;;;229118;1260;23035;-55
2023/09/23 13:55:28;;;;;;;1.50;0.90;;;25.00;57.50;;;;;;229106;1248;24090;-55
2023/09/23 14:00:33;;;;;;;4.30;1.40;;;25.00;57.70;;;;;;229064;1250;24176;-56
2023/09/23 14:05:36;;;;;;;1.20;1.10;;;24.90;57.90;;;;;;229209;1249;22253;-57
2023/09/23 14:10:40;;;;;;;2.50;1.20;;;24.80;58.80;;;;;;221299;1254;22647;-55
2023/09/23 14:15:44;;;;;;;1.20;1.00;;;24.70;59.30;;;;;;229172;1248;22244;-57
2023/09/23 14:20:47;;;;;;;1.10;1.00;;;24.80;60.20;;;;;;229183;1260;22267;-57
2023/09/23 14:25:50;;;;;;;3.10;1.00;;;25.20;59.60;;;;;;229106;1264;22268;-58
2023/09/23 14:30:54;;;;;;;2.50;1.00;;;24.80;60.30;;;;;;229182;1248;22349;-59
2023/09/23 14:35:58;;;;;;;3.00;0.70;;;24.50;60.80;;;;;;229152;1249;22653;-59
2023/09/23 14:41:02;;;;;;;2.20;1.00;;;24.50;60.30;;;;;;229178;1248;22351;-60
2023/09/23 14:46:05;;;;;;;4.20;1.20;;;24.50;59.00;;;;;;229098;1249;22276;-60
